sensor_id;sensor_type;location;lat;lon;timestamp;P1;durP1;ratioP1;P2;durP2;ratioP2
35306;SDS011;21420;52.196;21.416;2023-02-28T00:01:24;67.60;;;33.50;;
35306;SDS011;21420;52.196;21.416;2023-02-28T00:03:53;77.70;;;35.50;;
35306;SDS011;21420;52.196;21.416;2023-02-28T00:06:20;75.90;;;37.10;;
35306;SDS011;21420;52.196;21.416;2023-02-28T00:08:47;74.40;;;37.50;;
35306;SDS011;21420;52.196;21.416;2023-02-28T00:11:15;79.30;;;37.80;;
35306;SDS011;21420;52.196;21.416;2023-02-28T00:13:44;85.00;;;38.00;;
35306;SDS011;21420;52.196;21.416;2023-02-28T00:16:17;81.30;;;35.70;;
35306;SDS011;21420;52.196;21.416;2023-02-28T00:18:47;87.80;;;39.60;;
35306;SDS011;21420;52.196;21.416;2023-02-28T00:21:15;466.00;;;146.70;;
35306;SDS011;21420;52.196;21.416;2023-02-28T00:23:43;107.50;;;49.80;;
35306;SDS011;21420;52.196;21.416;2023-02-28T00:26:10;135.90;;;54.70;;
35306;SDS011;21420;52.196;21.416;2023-02-28T00:31:06;119.30;;;50.50;;
35306;SDS011;21420;52.196;21.416;2023-02-28T00:33:34;86.90;;;39.90;;
35306;SDS011;21420;52.196;21.416;2023-02-28T00:36:02;102.90;;;44.80;;
35306;SDS011;21420;52.196;21.416;2023-02-28T00:38:32;113.80;;;51.10;;
35306;SDS011;21420;52.196;21.416;2023-02-28T00:40:59;130.40;;;58.80;;
35306;SDS011;21420;52.196;21.416;2023-02-28T00:43:32;131.30;;;59.60;;
35306;SDS011;21420;52.196;21.416;2023-02-28T00:46:02;117.40;;;55.50;;
35306;SDS011;21420;52.196;21.416;2023-02-28T00:48:31;118.30;;;54.30;;
35306;SDS011;21420;52.196;21.416;2023-02-28T00:50:58;129.10;;;54.10;;
35306;SDS011;21420;52.196;21.416;2023-02-28T00:53:25;135.90;;;54.20;;
35306;SDS011;21420;52.196;21.416;2023-02-28T00:55:52;137.50;;;54.10;;
35306;SDS011;21420;52.196;21.416;2023-02-28T00:58:19;158.90;;;58.00;;
35306;SDS011;21420;52.196;21.416;2023-02-28T01:00:46;158.60;;;56.10;;
35306;SDS011;21420;52.196;21.416;2023-02-28T01:03:16;143.40;;;57.20;;
35306;SDS011;21420;52.196;21.416;2023-02-28T01:05:44;149.80;;;54.80;;
35306;SDS011;21420;52.196;21.416;2023-02-28T01:08:12;133.60;;;52.20;;
35306;SDS011;21420;52.196;21.416;2023-02-28T01:10:40;138.20;;;54.00;;
35306;SDS011;21420;52.196;21.416;2023-02-28T01:13:07;129.50;;;54.90;;
35306;SDS011;21420;52.196;21.416;2023-02-28T01:15:36;133.70;;;53.90;;
35306;SDS011;21420;52.196;21.416;2023-02-28T01:18:04;144.30;;;57.60;;
35306;SDS011;21420;52.196;21.416;2023-02-28T01:20:31;171.10;;;57.70;;
35306;SDS011;21420;52.196;21.416;2023-02-28T01:22:58;222.30;;;75.70;;
35306;SDS011;21420;52.196;21.416;2023-02-28T01:25:26;191.60;;;71.80;;
35306;SDS011;21420;52.196;21.416;2023-02-28T01:27:53;202.00;;;69.80;;
35306;SDS011;21420;52.196;21.416;2023-02-28T01:30:20;140.50;;;57.30;;
35306;SDS011;21420;52.196;21.416;2023-02-28T01:32:47;113.10;;;53.40;;
35306;SDS011;21420;52.196;21.416;2023-02-28T01:35:14;116.60;;;54.60;;
35306;SDS011;21420;52.196;21.416;2023-02-28T01:37:41;128.10;;;54.60;;
35306;SDS011;21420;52.196;21.416;2023-02-28T01:40:08;131.80;;;56.30;;
35306;SDS011;21420;52.196;21.416;2023-02-28T01:42:35;136.20;;;56.90;;
35306;SDS011;21420;52.196;21.416;2023-02-28T01:45:17;128.40;;;54.90;;
35306;SDS011;21420;52.196;21.416;2023-02-28T01:47:52;138.10;;;59.90;;
35306;SDS011;21420;52.196;21.416;2023-02-28T01:50:24;133.80;;;57.70;;
35306;SDS011;21420;52.196;21.416;2023-02-28T01:52:58;146.70;;;63.40;;
35306;SDS011;21420;52.196;21.416;2023-02-28T01:55:30;137.50;;;61.10;;
35306;SDS011;21420;52.196;21.416;2023-02-28T01:58:00;123.10;;;56.60;;
35306;SDS011;21420;52.196;21.416;2023-02-28T02:00:31;137.60;;;60.00;;
35306;SDS011;21420;52.196;21.416;2023-02-28T02:02:59;128.10;;;59.60;;
35306;SDS011;21420;52.196;21.416;2023-02-28T02:05:35;123.50;;;62.70;;
35306;SDS011;21420;52.196;21.416;2023-02-28T02:08:09;140.20;;;63.30;;
35306;SDS011;21420;52.196;21.416;2023-02-28T02:10:40;125.40;;;62.80;;
35306;SDS011;21420;52.196;21.416;2023-02-28T02:18:51;123.80;;;59.80;;
35306;SDS011;21420;52.196;21.416;2023-02-28T02:27:38;123.70;;;53.90;;
35306;SDS011;21420;52.196;21.416;2023-02-28T02:36:13;121.60;;;57.30;;
35306;SDS011;21420;52.196;21.416;2023-02-28T02:39:36;109.10;;;51.80;;
35306;SDS011;21420;52.196;21.416;2023-02-28T02:41:53;116.10;;;52.40;;
35306;SDS011;21420;52.196;21.416;2023-02-28T02:44:27;116.60;;;53.40;;
35306;SDS011;21420;52.196;21.416;2023-02-28T02:46:59;115.70;;;55.70;;
35306;SDS011;21420;52.196;21.416;2023-02-28T02:49:33;110.30;;;53.90;;
35306;SDS011;21420;52.196;21.416;2023-02-28T02:54:33;107.90;;;52.10;;
35306;SDS011;21420;52.196;21.416;2023-02-28T02:57:05;113.30;;;53.80;;
35306;SDS011;21420;52.196;21.416;2023-02-28T02:59:38;118.50;;;55.30;;
35306;SDS011;21420;52.196;21.416;2023-02-28T03:02:08;112.60;;;53.20;;
35306;SDS011;21420;52.196;21.416;2023-02-28T03:04:40;110.40;;;53.50;;
35306;SDS011;21420;52.196;21.416;2023-02-28T03:07:09;110.10;;;51.90;;
35306;SDS011;21420;52.196;21.416;2023-02-28T03:09:37;112.50;;;49.50;;
35306;SDS011;21420;52.196;21.416;2023-02-28T03:12:06;108.20;;;50.10;;
35306;SDS011;21420;52.196;21.416;2023-02-28T03:14:54;111.50;;;50.30;;
35306;SDS011;21420;52.196;21.416;2023-02-28T03:20:32;100.00;;;47.70;;
35306;SDS011;21420;52.196;21.416;2023-02-28T03:23:13;100.90;;;48.80;;
35306;SDS011;21420;52.196;21.416;2023-02-28T03:25:56;107.80;;;48.60;;
35306;SDS011;21420;52.196;21.416;2023-02-28T03:28:43;107.60;;;50.60;;
35306;SDS011;21420;52.196;21.416;2023-02-28T03:31:27;103.90;;;48.60;;
35306;SDS011;21420;52.196;21.416;2023-02-28T03:34:08;104.10;;;45.80;;
35306;SDS011;21420;52.196;21.416;2023-02-28T03:36:51;97.50;;;45.60;;
35306;SDS011;21420;52.196;21.416;2023-02-28T03:39:36;126.20;;;54.00;;
35306;SDS011;21420;52.196;21.416;2023-02-28T03:42:29;113.00;;;49.50;;
35306;SDS011;21420;52.196;21.416;2023-02-28T03:45:05;105.90;;;45.30;;
35306;SDS011;21420;52.196;21.416;2023-02-28T03:47:39;96.30;;;45.10;;
35306;SDS011;21420;52.196;21.416;2023-02-28T03:50:22;106.80;;;48.20;;
35306;SDS011;21420;52.196;21.416;2023-02-28T03:52:56;117.60;;;51.60;;
35306;SDS011;21420;52.196;21.416;2023-02-28T03:55:32;116.10;;;47.70;;
35306;SDS011;21420;52.196;21.416;2023-02-28T03:58:08;110.20;;;49.30;;
35306;SDS011;21420;52.196;21.416;2023-02-28T04:00:44;112.50;;;47.70;;
35306;SDS011;21420;52.196;21.416;2023-02-28T04:03:15;100.40;;;45.90;;
35306;SDS011;21420;52.196;21.416;2023-02-28T04:05:46;92.20;;;44.90;;
35306;SDS011;21420;52.196;21.416;2023-02-28T04:08:17;94.50;;;43.50;;
35306;SDS011;21420;52.196;21.416;2023-02-28T04:10:45;89.80;;;41.60;;
35306;SDS011;21420;52.196;21.416;2023-02-28T04:13:19;90.80;;;45.10;;
35306;SDS011;21420;52.196;21.416;2023-02-28T04:15:46;92.90;;;43.20;;
35306;SDS011;21420;52.196;21.416;2023-02-28T04:18:13;92.30;;;43.70;;
35306;SDS011;21420;52.196;21.416;2023-02-28T04:20:39;92.60;;;41.70;;
35306;SDS011;21420;52.196;21.416;2023-02-28T04:23:09;82.60;;;41.30;;
35306;SDS011;21420;52.196;21.416;2023-02-28T04:25:39;93.50;;;41.20;;
35306;SDS011;21420;52.196;21.416;2023-02-28T04:28:06;95.50;;;43.30;;
35306;SDS011;21420;52.196;21.416;2023-02-28T04:30:33;88.50;;;41.20;;
35306;SDS011;21420;52.196;21.416;2023-02-28T04:33:00;85.50;;;40.90;;
35306;SDS011;21420;52.196;21.416;2023-02-28T04:35:27;93.90;;;41.30;;
35306;SDS011;21420;52.196;21.416;2023-02-28T04:37:54;81.20;;;38.20;;
35306;SDS011;21420;52.196;21.416;2023-02-28T04:40:21;83.50;;;40.40;;
35306;SDS011;21420;52.196;21.416;2023-02-28T04:42:47;82.10;;;40.40;;
35306;SDS011;21420;52.196;21.416;2023-02-28T04:45:14;80.70;;;40.90;;
35306;SDS011;21420;52.196;21.416;2023-02-28T04:47:41;76.60;;;38.30;;
35306;SDS011;21420;52.196;21.416;2023-02-28T04:50:08;82.60;;;39.00;;
35306;SDS011;21420;52.196;21.416;2023-02-28T04:52:36;79.20;;;39.80;;
35306;SDS011;21420;52.196;21.416;2023-02-28T04:55:02;72.50;;;39.50;;
35306;SDS011;21420;52.196;21.416;2023-02-28T04:57:30;87.80;;;41.40;;
35306;SDS011;21420;52.196;21.416;2023-02-28T04:59:57;85.80;;;41.70;;
35306;SDS011;21420;52.196;21.416;2023-02-28T05:02:23;85.90;;;42.20;;
35306;SDS011;21420;52.196;21.416;2023-02-28T05:04:50;84.10;;;38.80;;
35306;SDS011;21420;52.196;21.416;2023-02-28T05:07:17;78.70;;;37.70;;
35306;SDS011;21420;52.196;21.416;2023-02-28T05:09:44;84.00;;;41.00;;
35306;SDS011;21420;52.196;21.416;2023-02-28T05:12:11;80.00;;;39.00;;
35306;SDS011;21420;52.196;21.416;2023-02-28T05:14:38;69.70;;;34.90;;
35306;SDS011;21420;52.196;21.416;2023-02-28T05:17:05;81.70;;;38.80;;
35306;SDS011;21420;52.196;21.416;2023-02-28T05:19:32;92.80;;;42.30;;
35306;SDS011;21420;52.196;21.416;2023-02-28T05:21:59;92.00;;;43.30;;
35306;SDS011;21420;52.196;21.416;2023-02-28T05:24:26;95.10;;;42.70;;
35306;SDS011;21420;52.196;21.416;2023-02-28T05:26:53;77.40;;;41.10;;
35306;SDS011;21420;52.196;21.416;2023-02-28T05:29:21;78.80;;;41.00;;
35306;SDS011;21420;52.196;21.416;2023-02-28T05:31:48;81.50;;;39.20;;
35306;SDS011;21420;52.196;21.416;2023-02-28T05:34:16;70.60;;;37.90;;
35306;SDS011;21420;52.196;21.416;2023-02-28T05:36:44;82.50;;;41.50;;
35306;SDS011;21420;52.196;21.416;2023-02-28T05:39:11;78.10;;;41.10;;
35306;SDS011;21420;52.196;21.416;2023-02-28T05:41:40;77.10;;;38.20;;
35306;SDS011;21420;52.196;21.416;2023-02-28T05:44:08;72.30;;;37.50;;
35306;SDS011;21420;52.196;21.416;2023-02-28T05:46:36;78.10;;;39.70;;
35306;SDS011;21420;52.196;21.416;2023-02-28T05:49:03;82.90;;;37.10;;
35306;SDS011;21420;52.196;21.416;2023-02-28T05:51:30;85.70;;;40.30;;
35306;SDS011;21420;52.196;21.416;2023-02-28T05:53:58;82.70;;;40.50;;
35306;SDS011;21420;52.196;21.416;2023-02-28T05:56:27;78.10;;;42.10;;
35306;SDS011;21420;52.196;21.416;2023-02-28T05:58:54;80.10;;;42.10;;
35306;SDS011;21420;52.196;21.416;2023-02-28T06:01:30;89.90;;;45.00;;
35306;SDS011;21420;52.196;21.416;2023-02-28T06:04:05;92.10;;;45.60;;
35306;SDS011;21420;52.196;21.416;2023-02-28T06:06:54;96.40;;;49.90;;
35306;SDS011;21420;52.196;21.416;2023-02-28T06:09:24;106.80;;;52.10;;
35306;SDS011;21420;52.196;21.416;2023-02-28T06:11:51;100.90;;;52.40;;
35306;SDS011;21420;52.196;21.416;2023-02-28T06:14:19;90.30;;;47.90;;
35306;SDS011;21420;52.196;21.416;2023-02-28T06:16:46;96.20;;;50.40;;
35306;SDS011;21420;52.196;21.416;2023-02-28T06:19:14;82.90;;;42.90;;
35306;SDS011;21420;52.196;21.416;2023-02-28T06:21:42;78.00;;;42.60;;
35306;SDS011;21420;52.196;21.416;2023-02-28T06:24:09;70.00;;;39.40;;
35306;SDS011;21420;52.196;21.416;2023-02-28T06:26:36;75.90;;;39.80;;
35306;SDS011;21420;52.196;21.416;2023-02-28T06:29:03;74.10;;;43.20;;
35306;SDS011;21420;52.196;21.416;2023-02-28T06:31:30;77.90;;;46.80;;
35306;SDS011;21420;52.196;21.416;2023-02-28T06:33:58;76.40;;;44.60;;
35306;SDS011;21420;52.196;21.416;2023-02-28T06:36:25;93.10;;;49.10;;
35306;SDS011;21420;52.196;21.416;2023-02-28T06:38:51;79.80;;;44.80;;
35306;SDS011;21420;52.196;21.416;2023-02-28T06:41:22;72.80;;;41.60;;
35306;SDS011;21420;52.196;21.416;2023-02-28T06:43:51;73.50;;;39.60;;
35306;SDS011;21420;52.196;21.416;2023-02-28T06:46:19;70.50;;;40.20;;
35306;SDS011;21420;52.196;21.416;2023-02-28T06:48:46;63.00;;;37.70;;
35306;SDS011;21420;52.196;21.416;2023-02-28T06:51:18;70.10;;;41.40;;
35306;SDS011;21420;52.196;21.416;2023-02-28T06:53:50;65.80;;;39.90;;
35306;SDS011;21420;52.196;21.416;2023-02-28T06:56:18;64.20;;;38.90;;
35306;SDS011;21420;52.196;21.416;2023-02-28T06:58:50;62.60;;;38.50;;
35306;SDS011;21420;52.196;21.416;2023-02-28T07:01:19;61.10;;;34.90;;
35306;SDS011;21420;52.196;21.416;2023-02-28T07:06:19;50.20;;;31.60;;
35306;SDS011;21420;52.196;21.416;2023-02-28T07:08:49;48.90;;;27.80;;
35306;SDS011;21420;52.196;21.416;2023-02-28T07:11:17;45.50;;;27.70;;
35306;SDS011;21420;52.196;21.416;2023-02-28T07:13:44;46.30;;;29.70;;
35306;SDS011;21420;52.196;21.416;2023-02-28T07:16:11;48.60;;;32.20;;
35306;SDS011;21420;52.196;21.416;2023-02-28T07:18:38;55.40;;;34.60;;
35306;SDS011;21420;52.196;21.416;2023-02-28T07:21:07;65.70;;;41.20;;
35306;SDS011;21420;52.196;21.416;2023-02-28T07:23:35;72.00;;;43.70;;
35306;SDS011;21420;52.196;21.416;2023-02-28T07:26:06;77.30;;;47.90;;
35306;SDS011;21420;52.196;21.416;2023-02-28T07:28:37;73.40;;;47.30;;
35306;SDS011;21420;52.196;21.416;2023-02-28T07:31:05;73.10;;;45.70;;
35306;SDS011;21420;52.196;21.416;2023-02-28T07:33:33;64.30;;;46.70;;
35306;SDS011;21420;52.196;21.416;2023-02-28T07:36:35;64.80;;;43.30;;
35306;SDS011;21420;52.196;21.416;2023-02-28T07:38:55;60.40;;;42.40;;
35306;SDS011;21420;52.196;21.416;2023-02-28T07:41:22;61.70;;;44.20;;
35306;SDS011;21420;52.196;21.416;2023-02-28T07:43:53;57.90;;;42.70;;
35306;SDS011;21420;52.196;21.416;2023-02-28T07:46:20;51.40;;;36.90;;
35306;SDS011;21420;52.196;21.416;2023-02-28T07:48:47;48.60;;;34.40;;
35306;SDS011;21420;52.196;21.416;2023-02-28T07:51:14;48.80;;;32.60;;
35306;SDS011;21420;52.196;21.416;2023-02-28T07:53:41;41.30;;;28.40;;
35306;SDS011;21420;52.196;21.416;2023-02-28T07:56:08;40.80;;;29.30;;
35306;SDS011;21420;52.196;21.416;2023-02-28T07:58:37;34.60;;;23.70;;
35306;SDS011;21420;52.196;21.416;2023-02-28T08:01:07;27.60;;;20.00;;
35306;SDS011;21420;52.196;21.416;2023-02-28T08:03:36;27.90;;;17.80;;
35306;SDS011;21420;52.196;21.416;2023-02-28T08:06:04;23.90;;;16.30;;
35306;SDS011;21420;52.196;21.416;2023-02-28T08:08:31;14.20;;;12.60;;
35306;SDS011;21420;52.196;21.416;2023-02-28T08:10:59;19.00;;;12.50;;
35306;SDS011;21420;52.196;21.416;2023-02-28T08:13:27;15.30;;;10.60;;
35306;SDS011;21420;52.196;21.416;2023-02-28T08:15:56;16.40;;;12.30;;
35306;SDS011;21420;52.196;21.416;2023-02-28T08:18:23;11.90;;;8.50;;
35306;SDS011;21420;52.196;21.416;2023-02-28T08:20:50;11.60;;;9.70;;
35306;SDS011;21420;52.196;21.416;2023-02-28T08:23:18;6.90;;;6.20;;
35306;SDS011;21420;52.196;21.416;2023-02-28T08:25:52;6.40;;;5.70;;
35306;SDS011;21420;52.196;21.416;2023-02-28T08:28:20;8.20;;;6.90;;
35306;SDS011;21420;52.196;21.416;2023-02-28T08:30:50;7.60;;;6.80;;
35306;SDS011;21420;52.196;21.416;2023-02-28T08:33:17;10.60;;;8.80;;
35306;SDS011;21420;52.196;21.416;2023-02-28T08:35:43;8.90;;;7.50;;
35306;SDS011;21420;52.196;21.416;2023-02-28T08:38:10;9.00;;;6.40;;
35306;SDS011;21420;52.196;21.416;2023-02-28T08:40:37;9.30;;;6.30;;
35306;SDS011;21420;52.196;21.416;2023-02-28T08:43:04;8.70;;;6.10;;
35306;SDS011;21420;52.196;21.416;2023-02-28T08:45:31;8.40;;;5.90;;
35306;SDS011;21420;52.196;21.416;2023-02-28T08:47:58;7.70;;;6.90;;
35306;SDS011;21420;52.196;21.416;2023-02-28T08:50:25;7.50;;;6.50;;
35306;SDS011;21420;52.196;21.416;2023-02-28T08:52:52;7.90;;;7.10;;
35306;SDS011;21420;52.196;21.416;2023-02-28T08:55:19;9.90;;;8.20;;
35306;SDS011;21420;52.196;21.416;2023-02-28T08:57:46;11.40;;;9.90;;
35306;SDS011;21420;52.196;21.416;2023-02-28T09:00:13;11.50;;;9.60;;
35306;SDS011;21420;52.196;21.416;2023-02-28T09:02:40;10.60;;;9.30;;
35306;SDS011;21420;52.196;21.416;2023-02-28T09:05:09;11.60;;;9.40;;
35306;SDS011;21420;52.196;21.416;2023-02-28T09:07:36;11.60;;;9.80;;
35306;SDS011;21420;52.196;21.416;2023-02-28T09:10:03;12.30;;;10.30;;
35306;SDS011;21420;52.196;21.416;2023-02-28T09:12:32;12.10;;;10.30;;
35306;SDS011;21420;52.196;21.416;2023-02-28T09:15:01;12.10;;;10.10;;
35306;SDS011;21420;52.196;21.416;2023-02-28T09:17:29;11.10;;;8.90;;
35306;SDS011;21420;52.196;21.416;2023-02-28T09:19:56;9.20;;;8.10;;
35306;SDS011;21420;52.196;21.416;2023-02-28T09:22:24;9.10;;;7.90;;
35306;SDS011;21420;52.196;21.416;2023-02-28T09:24:51;8.80;;;7.90;;
35306;SDS011;21420;52.196;21.416;2023-02-28T09:27:18;9.60;;;8.70;;
35306;SDS011;21420;52.196;21.416;2023-02-28T09:29:45;10.70;;;9.30;;
35306;SDS011;21420;52.196;21.416;2023-02-28T09:32:12;10.40;;;9.00;;
35306;SDS011;21420;52.196;21.416;2023-02-28T09:34:39;9.70;;;8.80;;
35306;SDS011;21420;52.196;21.416;2023-02-28T09:37:06;9.20;;;8.10;;
35306;SDS011;21420;52.196;21.416;2023-02-28T09:39:33;10.50;;;9.40;;
35306;SDS011;21420;52.196;21.416;2023-02-28T09:42:00;11.50;;;9.00;;
35306;SDS011;21420;52.196;21.416;2023-02-28T09:44:34;11.20;;;9.70;;
35306;SDS011;21420;52.196;21.416;2023-02-28T09:49:42;11.20;;;10.10;;
35306;SDS011;21420;52.196;21.416;2023-02-28T09:52:20;11.20;;;9.90;;
35306;SDS011;21420;52.196;21.416;2023-02-28T09:54:53;12.40;;;9.60;;
35306;SDS011;21420;52.196;21.416;2023-02-28T09:57:32;10.40;;;9.30;;
35306;SDS011;21420;52.196;21.416;2023-02-28T10:00:10;10.60;;;9.40;;
35306;SDS011;21420;52.196;21.416;2023-02-28T10:08:45;13.80;;;12.40;;
35306;SDS011;21420;52.196;21.416;2023-02-28T10:11:22;14.70;;;9.50;;
35306;SDS011;21420;52.196;21.416;2023-02-28T10:13:54;10.90;;;9.80;;
35306;SDS011;21420;52.196;21.416;2023-02-28T10:16:42;10.60;;;9.50;;
35306;SDS011;21420;52.196;21.416;2023-02-28T10:21:59;10.20;;;8.60;;
35306;SDS011;21420;52.196;21.416;2023-02-28T10:27:16;10.10;;;9.00;;
35306;SDS011;21420;52.196;21.416;2023-02-28T10:29:47;11.10;;;9.80;;
35306;SDS011;21420;52.196;21.416;2023-02-28T10:32:23;10.80;;;9.80;;
35306;SDS011;21420;52.196;21.416;2023-02-28T10:34:56;25.20;;;18.10;;
35306;SDS011;21420;52.196;21.416;2023-02-28T10:37:27;13.80;;;11.50;;
35306;SDS011;21420;52.196;21.416;2023-02-28T10:39:54;44.50;;;29.40;;
35306;SDS011;21420;52.196;21.416;2023-02-28T10:42:26;36.00;;;23.50;;
35306;SDS011;21420;52.196;21.416;2023-02-28T10:45:14;26.30;;;19.10;;
35306;SDS011;21420;52.196;21.416;2023-02-28T10:47:49;12.40;;;11.20;;
35306;SDS011;21420;52.196;21.416;2023-02-28T10:50:26;13.80;;;10.40;;
35306;SDS011;21420;52.196;21.416;2023-02-28T10:52:55;11.60;;;10.20;;
35306;SDS011;21420;52.196;21.416;2023-02-28T10:58:02;11.50;;;10.00;;
35306;SDS011;21420;52.196;21.416;2023-02-28T11:00:33;12.20;;;11.00;;
35306;SDS011;21420;52.196;21.416;2023-02-28T11:03:02;25.60;;;21.00;;
35306;SDS011;21420;52.196;21.416;2023-02-28T11:05:55;12.10;;;10.10;;
35306;SDS011;21420;52.196;21.416;2023-02-28T11:08:22;20.10;;;16.70;;
35306;SDS011;21420;52.196;21.416;2023-02-28T11:10:55;20.90;;;11.00;;
35306;SDS011;21420;52.196;21.416;2023-02-28T11:13:26;12.60;;;10.50;;
35306;SDS011;21420;52.196;21.416;2023-02-28T11:15:59;13.40;;;11.00;;
35306;SDS011;21420;52.196;21.416;2023-02-28T11:18:30;21.70;;;15.30;;
35306;SDS011;21420;52.196;21.416;2023-02-28T11:21:02;13.70;;;10.10;;
35306;SDS011;21420;52.196;21.416;2023-02-28T11:23:30;13.80;;;10.70;;
35306;SDS011;21420;52.196;21.416;2023-02-28T11:26:03;11.20;;;9.90;;
35306;SDS011;21420;52.196;21.416;2023-02-28T11:33:54;10.80;;;9.70;;
35306;SDS011;21420;52.196;21.416;2023-02-28T11:38:55;20.90;;;15.60;;
35306;SDS011;21420;52.196;21.416;2023-02-28T11:47:06;11.70;;;10.10;;
35306;SDS011;21420;52.196;21.416;2023-02-28T11:49:48;11.20;;;10.10;;
35306;SDS011;21420;52.196;21.416;2023-02-28T11:55:16;11.80;;;10.30;;
35306;SDS011;21420;52.196;21.416;2023-02-28T11:57:59;10.40;;;9.30;;
35306;SDS011;21420;52.196;21.416;2023-02-28T12:00:52;12.00;;;9.50;;
35306;SDS011;21420;52.196;21.416;2023-02-28T12:17:15;11.00;;;9.90;;
35306;SDS011;21420;52.196;21.416;2023-02-28T12:19:55;10.80;;;9.40;;
35306;SDS011;21420;52.196;21.416;2023-02-28T12:25:22;9.60;;;8.60;;
35306;SDS011;21420;52.196;21.416;2023-02-28T12:28:04;12.70;;;9.00;;
35306;SDS011;21420;52.196;21.416;2023-02-28T12:30:36;10.50;;;9.30;;
35306;SDS011;21420;52.196;21.416;2023-02-28T12:33:14;10.30;;;8.80;;
35306;SDS011;21420;52.196;21.416;2023-02-28T12:38:17;11.50;;;9.50;;
35306;SDS011;21420;52.196;21.416;2023-02-28T12:40:50;11.00;;;9.00;;
35306;SDS011;21420;52.196;21.416;2023-02-28T12:43:21;9.50;;;8.30;;
35306;SDS011;21420;52.196;21.416;2023-02-28T12:45:53;12.80;;;9.50;;
35306;SDS011;21420;52.196;21.416;2023-02-28T12:48:28;12.30;;;9.40;;
35306;SDS011;21420;52.196;21.416;2023-02-28T12:50:58;11.20;;;9.80;;
35306;SDS011;21420;52.196;21.416;2023-02-28T12:59:00;12.50;;;10.10;;
35306;SDS011;21420;52.196;21.416;2023-02-28T13:01:42;11.50;;;10.30;;
35306;SDS011;21420;52.196;21.416;2023-02-28T13:09:56;14.40;;;12.50;;
35306;SDS011;21420;52.196;21.416;2023-02-28T13:12:26;14.20;;;12.20;;
35306;SDS011;21420;52.196;21.416;2023-02-28T13:17:48;13.80;;;10.70;;
35306;SDS011;21420;52.196;21.416;2023-02-28T13:20:20;11.50;;;8.50;;
35306;SDS011;21420;52.196;21.416;2023-02-28T13:22:51;14.40;;;10.80;;
35306;SDS011;21420;52.196;21.416;2023-02-28T13:38:43;11.90;;;10.60;;
35306;SDS011;21420;52.196;21.416;2023-02-28T13:49:28;15.30;;;12.30;;
35306;SDS011;21420;52.196;21.416;2023-02-28T13:54:49;13.70;;;12.30;;
35306;SDS011;21420;52.196;21.416;2023-02-28T13:57:30;15.10;;;11.70;;
35306;SDS011;21420;52.196;21.416;2023-02-28T14:05:32;15.70;;;12.80;;
35306;SDS011;21420;52.196;21.416;2023-02-28T14:08:17;13.60;;;11.60;;
35306;SDS011;21420;52.196;21.416;2023-02-28T14:10:53;17.20;;;12.40;;
35306;SDS011;21420;52.196;21.416;2023-02-28T14:13:41;13.90;;;11.30;;
35306;SDS011;21420;52.196;21.416;2023-02-28T14:16:14;15.60;;;13.10;;
35306;SDS011;21420;52.196;21.416;2023-02-28T14:18:51;16.00;;;12.90;;
35306;SDS011;21420;52.196;21.416;2023-02-28T14:21:34;15.70;;;12.90;;
35306;SDS011;21420;52.196;21.416;2023-02-28T14:26:56;17.50;;;14.00;;
35306;SDS011;21420;52.196;21.416;2023-02-28T14:32:41;19.10;;;14.60;;
35306;SDS011;21420;52.196;21.416;2023-02-28T14:37:53;18.30;;;13.90;;
35306;SDS011;21420;52.196;21.416;2023-02-28T14:40:25;18.40;;;14.90;;
35306;SDS011;21420;52.196;21.416;2023-02-28T14:42:57;19.80;;;15.80;;
35306;SDS011;21420;52.196;21.416;2023-02-28T14:47:55;18.70;;;14.90;;
35306;SDS011;21420;52.196;21.416;2023-02-28T14:50:29;18.10;;;14.90;;
35306;SDS011;21420;52.196;21.416;2023-02-28T14:52:58;20.20;;;14.80;;
35306;SDS011;21420;52.196;21.416;2023-02-28T14:55:32;19.30;;;14.60;;
35306;SDS011;21420;52.196;21.416;2023-02-28T14:58:04;17.90;;;14.20;;
35306;SDS011;21420;52.196;21.416;2023-02-28T15:00:50;23.80;;;14.50;;
35306;SDS011;21420;52.196;21.416;2023-02-28T15:05:51;17.00;;;13.70;;
35306;SDS011;21420;52.196;21.416;2023-02-28T15:08:22;16.10;;;13.80;;
35306;SDS011;21420;52.196;21.416;2023-02-28T15:10:51;16.70;;;13.10;;
35306;SDS011;21420;52.196;21.416;2023-02-28T15:13:20;17.00;;;13.90;;
35306;SDS011;21420;52.196;21.416;2023-02-28T15:18:48;15.40;;;12.70;;
35306;SDS011;21420;52.196;21.416;2023-02-28T15:21:26;19.50;;;12.60;;
35306;SDS011;21420;52.196;21.416;2023-02-28T15:26:30;26.20;;;16.90;;
35306;SDS011;21420;52.196;21.416;2023-02-28T15:29:13;21.90;;;15.40;;
35306;SDS011;21420;52.196;21.416;2023-02-28T15:31:44;30.70;;;17.30;;
35306;SDS011;21420;52.196;21.416;2023-02-28T15:34:40;25.50;;;16.00;;
35306;SDS011;21420;52.196;21.416;2023-02-28T15:37:30;34.40;;;17.40;;
35306;SDS011;21420;52.196;21.416;2023-02-28T15:40:11;33.20;;;18.10;;
35306;SDS011;21420;52.196;21.416;2023-02-28T15:42:38;34.20;;;18.70;;
35306;SDS011;21420;52.196;21.416;2023-02-28T15:45:05;35.30;;;19.50;;
35306;SDS011;21420;52.196;21.416;2023-02-28T15:47:54;36.60;;;21.60;;
35306;SDS011;21420;52.196;21.416;2023-02-28T15:50:27;41.30;;;21.00;;
35306;SDS011;21420;52.196;21.416;2023-02-28T15:52:56;43.00;;;23.10;;
35306;SDS011;21420;52.196;21.416;2023-02-28T15:55:24;40.10;;;25.20;;
35306;SDS011;21420;52.196;21.416;2023-02-28T15:57:55;40.40;;;26.10;;
35306;SDS011;21420;52.196;21.416;2023-02-28T16:00:26;59.40;;;30.10;;
35306;SDS011;21420;52.196;21.416;2023-02-28T16:02:54;46.00;;;27.80;;
35306;SDS011;21420;52.196;21.416;2023-02-28T16:05:28;44.10;;;25.80;;
35306;SDS011;21420;52.196;21.416;2023-02-28T16:07:59;46.00;;;24.70;;
35306;SDS011;21420;52.196;21.416;2023-02-28T16:10:40;45.50;;;26.60;;
35306;SDS011;21420;52.196;21.416;2023-02-28T16:13:08;44.30;;;25.30;;
35306;SDS011;21420;52.196;21.416;2023-02-28T16:15:41;45.70;;;26.90;;
35306;SDS011;21420;52.196;21.416;2023-02-28T16:18:12;45.90;;;26.90;;
35306;SDS011;21420;52.196;21.416;2023-02-28T16:20:40;49.50;;;26.50;;
35306;SDS011;21420;52.196;21.416;2023-02-28T16:23:06;60.60;;;31.00;;
35306;SDS011;21420;52.196;21.416;2023-02-28T16:25:35;58.60;;;30.20;;
35306;SDS011;21420;52.196;21.416;2023-02-28T16:28:07;75.20;;;41.50;;
35306;SDS011;21420;52.196;21.416;2023-02-28T16:30:59;89.20;;;52.70;;
35306;SDS011;21420;52.196;21.416;2023-02-28T16:33:29;211.60;;;96.60;;
35306;SDS011;21420;52.196;21.416;2023-02-28T16:35:57;226.90;;;86.50;;
35306;SDS011;21420;52.196;21.416;2023-02-28T16:38:24;47.60;;;25.00;;
35306;SDS011;21420;52.196;21.416;2023-02-28T16:40:51;29.30;;;17.40;;
35306;SDS011;21420;52.196;21.416;2023-02-28T16:43:22;27.50;;;17.10;;
35306;SDS011;21420;52.196;21.416;2023-02-28T16:45:57;28.40;;;16.80;;
35306;SDS011;21420;52.196;21.416;2023-02-28T16:48:26;31.50;;;18.40;;
35306;SDS011;21420;52.196;21.416;2023-02-28T16:50:54;30.80;;;18.00;;
35306;SDS011;21420;52.196;21.416;2023-02-28T16:53:21;28.00;;;18.70;;
35306;SDS011;21420;52.196;21.416;2023-02-28T16:55:48;37.10;;;19.50;;